Time;durP1;ratioP1;P1;durP2;ratioP2;P2;SDS_P1;SDS_P2;PMS_P1;PMS_P2;Temp;Humidity;BMP_temperature;BMP_pressure;BME280_temperature;BME280_humidity;BME280_pressure;Samples;Min_cycle;Max_cycle;Signal;HPM_P1;HPM_P2
2022/09/03 00:00:09;;;;;;;4.23;2.20;;;;;;;;;;5035837;28;20291;-65
2022/09/03 00:03:00;;;;;;;1.40;1.30;;;;;;;;;;5042132;28;20265;-65
2022/09/03 00:05:47;;;;;;;1.90;1.57;;;;;;;;;;5042612;28;20198;-65
2022/09/03 00:08:46;;;;;;;2.47;1.60;;;;;;;;;;5068911;28;20190;-65
2022/09/03 00:11:31;;;;;;;2.33;1.60;;;;;;;;;;5024939;28;20292;-65
2022/09/03 00:14:06;;;;;;;2.33;1.60;;;;;;;;;;5039052;28;20696;-65
2022/09/03 00:16:53;;;;;;;1.27;1.17;;;;;;;;;;5044803;28;20206;-65
2022/09/03 00:19:40;;;;;;;3.10;1.57;;;;;;;;;;5040313;28;20219;-65
2022/09/03 00:22:13;;;;;;;3.47;1.77;;;;;;;;;;5077227;28;20209;-65
2022/09/03 00:24:43;;;;;;;2.67;1.37;;;;;;;;;;5044682;28;20210;-65
2022/09/03 00:27:18;;;;;;;2.07;1.87;;;;;;;;;;5042343;28;20214;-65
2022/09/03 00:30:08;;;;;;;2.17;1.97;;;;;;;;;;5074474;28;20640;-65
2022/09/03 00:32:51;;;;;;;2.97;1.83;;;;;;;;;;5045677;28;20209;-65
2022/09/03 00:35:52;;;;;;;2.20;1.73;;;;;;;;;;5037380;28;20490;-64
2022/09/03 00:38:23;;;;;;;2.40;1.60;;;;;;;;;;5043742;28;20210;-63
2022/09/03 00:40:54;;;;;;;1.97;1.63;;;;;;;;;;5058470;28;20198;-64
2022/09/03 00:43:45;;;;;;;1.90;1.70;;;;;;;;;;5048395;28;20233;-63
2022/09/03 00:46:19;;;;;;;2.33;1.80;;;;;;;;;;5050552;28;20210;-64
2022/09/03 00:49:05;;;;;;;2.10;1.90;;;;;;;;;;5047577;28;20205;-64
2022/09/03 00:51:51;;;;;;;2.57;2.07;;;;;;;;;;5039539;28;20210;-64
2022/09/03 00:54:43;;;;;;;2.10;1.93;;;;;;;;;;5041354;28;20210;-63
2022/09/03 00:57:15;;;;;;;2.87;2.00;;;;;;;;;;5034398;28;20663;-65
2022/09/03 00:59:56;;;;;;;1.90;1.70;;;;;;;;;;5045738;28;20199;-64
2022/09/03 01:02:45;;;;;;;2.43;1.87;;;;;;;;;;5046353;28;20229;-64
2022/09/03 01:05:34;;;;;;;2.60;2.10;;;;;;;;;;5040916;28;20206;-64
2022/09/03 01:08:07;;;;;;;1.67;1.57;;;;;;;;;;5067101;28;20212;-64
2022/09/03 01:10:56;;;;;;;2.70;1.93;;;;;;;;;;5050932;28;20281;-65
2022/09/03 01:13:30;;;;;;;3.43;2.07;;;;;;;;;;5024531;28;20206;-64
2022/09/03 01:16:12;;;;;;;2.47;1.80;;;;;;;;;;5039715;28;20264;-64
2022/09/03 01:18:59;;;;;;;2.20;1.90;;;;;;;;;;5049485;28;20256;-65
2022/09/03 01:21:54;;;;;;;2.03;1.50;;;;;;;;;;5027941;28;20820;-64
2022/09/03 01:24:34;;;;;;;2.20;2.00;;;;;;;;;;5041686;28;20203;-65
2022/09/03 01:27:20;;;;;;;2.77;1.80;;;;;;;;;;5028267;28;20675;-65
2022/09/03 01:30:02;;;;;;;2.10;1.90;;;;;;;;;;5027475;28;20214;-65
2022/09/03 01:32:52;;;;;;;2.03;1.83;;;;;;;;;;5028889;28;20187;-64
2022/09/03 01:35:33;;;;;;;2.20;2.00;;;;;;;;;;5018091;28;20211;-64
2022/09/03 01:38:24;;;;;;;2.10;1.90;;;;;;;;;;5034025;28;20636;-64
2022/09/03 01:44:19;;;;;;;2.13;1.50;;;;;;;;;;5040220;28;20793;-65
2022/09/03 01:46:59;;;;;;;1.90;1.70;;;;;;;;;;5060122;28;20201;-64
2022/09/03 01:49:40;;;;;;;2.33;1.60;;;;;;;;;;5074758;28;20201;-64
2022/09/03 01:52:27;;;;;;;1.70;1.60;;;;;;;;;;5057838;28;20189;-64
2022/09/03 01:55:12;;;;;;;3.37;1.93;;;;;;;;;;5053306;28;20229;-64
2022/09/03 01:58:00;;;;;;;2.37;1.67;;;;;;;;;;5063586;28;20192;-64
2022/09/03 02:00:35;;;;;;;2.70;1.80;;;;;;;;;;5057822;28;20619;-64
2022/09/03 02:03:06;;;;;;;2.13;1.37;;;;;;;;;;5063737;28;20233;-64
2022/09/03 02:05:38;;;;;;;3.20;1.90;;;;;;;;;;5061158;28;20185;-64
2022/09/03 02:08:12;;;;;;;3.57;2.00;;;;;;;;;;5051375;28;20186;-64
2022/09/03 02:10:46;;;;;;;3.03;1.80;;;;;;;;;;5058890;28;20638;-64
2022/09/03 02:13:23;;;;;;;1.90;1.70;;;;;;;;;;5051641;28;20198;-64
2022/09/03 02:15:53;;;;;;;1.57;1.47;;;;;;;;;;5036236;28;20209;-64
2022/09/03 02:18:35;;;;;;;3.80;1.93;;;;;;;;;;5072316;28;20255;-64
2022/09/03 02:21:09;;;;;;;2.10;1.80;;;;;;;;;;5054487;28;20659;-64
2022/09/03 02:23:43;;;;;;;1.80;1.60;;;;;;;;;;5051433;28;20221;-64
2022/09/03 02:26:16;;;;;;;2.10;1.60;;;;;;;;;;5064133;28;20228;-64
2022/09/03 02:28:47;;;;;;;2.00;1.80;;;;;;;;;;5075467;28;20539;-64
2022/09/03 02:31:31;;;;;;;2.17;1.83;;;;;;;;;;5067040;28;20198;-64
2022/09/03 02:34:02;;;;;;;2.10;1.80;;;;;;;;;;5055694;28;20201;-65
2022/09/03 02:36:37;;;;;;;1.97;1.77;;;;;;;;;;5066667;28;20224;-65
2022/09/03 02:39:09;;;;;;;1.47;1.37;;;;;;;;;;5036523;28;20718;-64
2022/09/03 02:41:40;;;;;;;1.97;1.60;;;;;;;;;;5069518;28;20212;-65
2022/09/03 02:44:22;;;;;;;2.30;1.67;;;;;;;;;;5056764;28;20249;-64
2022/09/03 02:46:53;;;;;;;2.00;1.70;;;;;;;;;;5070234;28;20182;-65
2022/09/03 02:49:22;;;;;;;2.03;1.83;;;;;;;;;;5061825;28;20771;-65
2022/09/03 02:51:57;;;;;;;1.80;1.50;;;;;;;;;;5050899;28;20210;-65
2022/09/03 02:54:38;;;;;;;1.67;1.53;;;;;;;;;;5053370;28;20228;-64
2022/09/03 02:57:10;;;;;;;1.73;1.60;;;;;;;;;;5044216;28;20681;-64
2022/09/03 02:59:43;;;;;;;1.97;1.77;;;;;;;;;;5065987;28;20194;-64
2022/09/03 03:02:12;;;;;;;1.80;1.40;;;;;;;;;;5074731;28;20214;-64
2022/09/03 03:04:45;;;;;;;2.60;1.63;;;;;;;;;;5056320;28;20225;-64
2022/09/03 03:07:15;;;;;;;2.10;1.60;;;;;;;;;;5078914;28;20273;-64
2022/09/03 03:09:48;;;;;;;1.93;1.57;;;;;;;;;;5081771;28;20618;-64
2022/09/03 03:12:18;;;;;;;1.80;1.30;;;;;;;;;;5067995;28;20209;-64
2022/09/03 03:14:51;;;;;;;2.10;1.40;;;;;;;;;;5064541;28;20206;-64
2022/09/03 03:17:32;;;;;;;1.93;1.73;;;;;;;;;;5080798;28;20667;-65
2022/09/03 03:20:00;;;;;;;1.53;1.43;;;;;;;;;;5054912;28;20194;-65
2022/09/03 03:22:35;;;;;;;4.00;1.63;;;;;;;;;;5054288;28;20186;-64
2022/09/03 03:25:09;;;;;;;1.80;1.43;;;;;;;;;;5061753;28;20300;-64
2022/09/03 03:27:39;;;;;;;1.77;1.50;;;;;;;;;;5071698;28;20202;-64
2022/09/03 03:30:13;;;;;;;2.17;1.70;;;;;;;;;;5049235;28;20729;-64
2022/09/03 03:32:44;;;;;;;2.67;1.40;;;;;;;;;;5051925;28;20769;-64
2022/09/03 03:35:27;;;;;;;1.73;1.50;;;;;;;;;;5030487;28;20182;-64
2022/09/03 03:37:59;;;;;;;2.20;1.40;;;;;;;;;;5052101;28;20651;-64
2022/09/03 03:40:31;;;;;;;1.40;1.30;;;;;;;;;;5049105;28;20206;-64
2022/09/03 03:43:00;;;;;;;1.90;1.23;;;;;;;;;;5052359;28;20206;-66
2022/09/03 03:45:36;;;;;;;1.73;1.33;;;;;;;;;;5044638;28;21038;-64
2022/09/03 03:48:06;;;;;;;2.07;1.40;;;;;;;;;;5053631;28;20214;-65
2022/09/03 03:50:38;;;;;;;1.60;1.50;;;;;;;;;;5054093;28;20216;-65
2022/09/03 03:53:11;;;;;;;1.53;1.30;;;;;;;;;;5048708;28;20199;-65
2022/09/03 03:55:43;;;;;;;1.90;1.23;;;;;;;;;;5060913;28;20229;-64
2022/09/03 03:58:15;;;;;;;1.53;1.37;;;;;;;;;;5049225;28;20190;-65
2022/09/03 04:00:48;;;;;;;2.37;1.30;;;;;;;;;;5063909;28;20651;-65
2022/09/03 04:03:23;;;;;;;2.60;1.40;;;;;;;;;;5044348;28;20723;-65
2022/09/03 04:05:59;;;;;;;1.77;1.40;;;;;;;;;;5073022;28;20200;-65
2022/09/03 04:08:35;;;;;;;1.77;1.33;;;;;;;;;;5064257;28;20248;-65
2022/09/03 04:11:12;;;;;;;1.50;1.30;;;;;;;;;;5048639;28;20221;-65
2022/09/03 04:13:48;;;;;;;1.60;1.50;;;;;;;;;;5045078;28;20237;-64
2022/09/03 04:16:37;;;;;;;1.53;1.27;;;;;;;;;;5052302;28;20197;-64
2022/09/03 04:19:10;;;;;;;3.33;1.43;;;;;;;;;;5051557;28;20210;-64
2022/09/03 04:21:41;;;;;;;2.20;1.50;;;;;;;;;;5065134;28;20198;-65
2022/09/03 04:24:12;;;;;;;2.10;1.50;;;;;;;;;;5056190;28;20226;-64
2022/09/03 04:26:42;;;;;;;1.40;1.30;;;;;;;;;;5064107;28;20727;-64
2022/09/03 04:29:14;;;;;;;1.40;1.30;;;;;;;;;;5050144;28;20260;-64
2022/09/03 04:32:52;;;;;;;1.57;1.07;;;;;;;;;;5056390;28;20530;-64
2022/09/03 04:34:34;;;;;;;1.50;1.40;;;;;;;;;;5067036;28;20213;-64
2022/09/03 04:37:08;;;;;;;1.40;1.07;;;;;;;;;;5069949;28;20217;-65
2022/09/03 04:39:39;;;;;;;1.53;1.27;;;;;;;;;;5055051;28;20267;-64
2022/09/03 04:42:09;;;;;;;1.70;1.17;;;;;;;;;;5055286;28;20202;-64
2022/09/03 04:44:40;;;;;;;1.47;1.37;;;;;;;;;;5061537;28;20232;-64
2022/09/03 04:47:08;;;;;;;2.50;1.40;;;;;;;;;;5056117;28;20194;-62
2022/09/03 04:49:53;;;;;;;1.30;1.20;;;;;;;;;;5058189;28;20274;-62
2022/09/03 04:52:24;;;;;;;3.17;1.50;;;;;;;;;;5061936;28;20205;-65
2022/09/03 04:54:57;;;;;;;1.37;1.23;;;;;;;;;;5067497;28;20205;-65
2022/09/03 04:57:25;;;;;;;2.50;1.30;;;;;;;;;;5067791;28;20202;-65
2022/09/03 04:59:57;;;;;;;1.60;1.27;;;;;;;;;;5053900;28;20647;-65
2022/09/03 05:02:27;;;;;;;1.50;1.27;;;;;;;;;;5066154;28;20202;-62
2022/09/03 05:04:59;;;;;;;2.03;1.20;;;;;;;;;;5069044;28;20737;-62
2022/09/03 05:07:37;;;;;;;1.20;1.10;;;;;;;;;;5041104;28;20194;-63
2022/09/03 05:10:08;;;;;;;2.00;1.40;;;;;;;;;;5075366;28;20247;-62
2022/09/03 05:13:07;;;;;;;2.90;1.40;;;;;;;;;;5059301;28;20220;-62
2022/09/03 05:15:42;;;;;;;2.03;1.30;;;;;;;;;;5064040;28;20390;-65
2022/09/03 05:18:11;;;;;;;1.83;1.20;;;;;;;;;;5085844;28;20213;-65
2022/09/03 05:20:44;;;;;;;2.27;1.40;;;;;;;;;;5052508;28;20205;-64
2022/09/03 05:23:14;;;;;;;1.60;1.10;;;;;;;;;;5067816;28;20271;-71
2022/09/03 05:25:43;;;;;;;5.30;1.20;;;;;;;;;;5054064;28;20238;-68
2022/09/03 05:28:15;;;;;;;2.20;1.60;;;;;;;;;;5063997;28;20689;-68
2022/09/03 05:30:44;;;;;;;3.43;1.40;;;;;;;;;;5069901;28;20204;-69
2022/09/03 05:33:15;;;;;;;2.37;1.60;;;;;;;;;;5070426;28;20341;-68
2022/09/03 05:35:43;;;;;;;2.00;1.60;;;;;;;;;;5059738;28;20615;-68
2022/09/03 05:38:14;;;;;;;4.53;1.67;;;;;;;;;;5067179;28;20213;-67
2022/09/03 05:40:44;;;;;;;2.97;1.57;;;;;;;;;;5072208;28;20202;-67
2022/09/03 05:43:13;;;;;;;3.27;1.50;;;;;;;;;;5073052;28;20229;-67
2022/09/03 05:45:48;;;;;;;2.93;1.60;;;;;;;;;;5076263;28;20209;-71
2022/09/03 05:48:18;;;;;;;2.23;1.47;;;;;;;;;;5073269;28;20671;-71
2022/09/03 05:50:50;;;;;;;2.37;1.57;;;;;;;;;;5060289;28;20581;-72
2022/09/03 05:53:21;;;;;;;6.17;1.53;;;;;;;;;;5082779;28;20206;-68
2022/09/03 05:56:00;;;;;;;2.77;1.70;;;;;;;;;;5069653;28;20201;-71
2022/09/03 05:58:53;;;;;;;1.97;1.60;;;;;;;;;;5067168;28;20630;-71
2022/09/03 06:01:32;;;;;;;3.13;1.77;;;;;;;;;;5053649;28;20202;-69
2022/09/03 06:04:06;;;;;;;2.13;1.63;;;;;;;;;;5049084;28;20259;-67
2022/09/03 06:06:39;;;;;;;1.70;1.60;;;;;;;;;;5051671;28;20235;-71
2022/09/03 06:09:12;;;;;;;2.47;1.70;;;;;;;;;;5063084;28;20190;-70
2022/09/03 06:11:41;;;;;;;2.33;1.40;;;;;;;;;;5065563;28;20673;-69
2022/09/03 06:14:13;;;;;;;6.17;1.70;;;;;;;;;;5076899;28;20209;-68
2022/09/03 06:16:51;;;;;;;2.93;1.90;;;;;;;;;;5047911;28;20277;-67
2022/09/03 06:19:23;;;;;;;3.30;1.57;;;;;;;;;;5076511;28;20201;-67
2022/09/03 06:21:54;;;;;;;2.30;1.50;;;;;;;;;;5073943;28;20193;-71
2022/09/03 06:24:25;;;;;;;4.00;1.80;;;;;;;;;;5059550;28;20214;-67
2022/09/03 06:26:58;;;;;;;4.40;1.80;;;;;;;;;;5082744;28;20244;-72
2022/09/03 06:29:27;;;;;;;4.57;1.77;;;;;;;;;;5063241;28;20354;-70
2022/09/03 06:31:58;;;;;;;4.20;1.50;;;;;;;;;;5065899;28;20198;-68
2022/09/03 06:34:33;;;;;;;6.27;1.67;;;;;;;;;;5073453;28;20200;-68
2022/09/03 06:37:03;;;;;;;2.63;1.77;;;;;;;;;;5082237;28;20558;-69
2022/09/03 06:39:35;;;;;;;2.20;1.57;;;;;;;;;;5058703;28;20704;-69
2022/09/03 06:42:04;;;;;;;2.57;1.70;;;;;;;;;;5069617;28;20233;-67
2022/09/03 06:44:36;;;;;;;2.00;1.50;;;;;;;;;;5066234;28;20328;-66
2022/09/03 06:47:07;;;;;;;3.63;1.60;;;;;;;;;;5068238;28;20332;-64
2022/09/03 06:49:38;;;;;;;2.67;1.70;;;;;;;;;;5057470;28;20616;-63
2022/09/03 06:52:13;;;;;;;4.43;1.73;;;;;;;;;;5066200;28;20831;-69
2022/09/03 06:54:45;;;;;;;2.30;1.73;;;;;;;;;;5070226;28;20201;-71
2022/09/03 06:57:14;;;;;;;4.67;1.70;;;;;;;;;;5048885;28;20197;-70
2022/09/03 06:59:45;;;;;;;2.27;1.50;;;;;;;;;;5068996;28;20197;-72
2022/09/03 07:02:17;;;;;;;4.00;1.43;;;;;;;;;;5052748;28;20304;-73
2022/09/03 07:04:45;;;;;;;3.63;1.70;;;;;;;;;;5073864;28;20241;-71
2022/09/03 07:07:30;;;;;;;6.97;2.00;;;;;;;;;;5061875;28;20197;-70
2022/09/03 07:10:05;;;;;;;6.03;1.70;;;;;;;;;;5062913;28;20186;-70
2022/09/03 07:12:47;;;;;;;3.00;1.43;;;;;;;;;;5063363;28;20269;-72
2022/09/03 07:15:14;;;;;;;5.23;1.80;;;;;;;;;;5067720;28;20216;-70
2022/09/03 07:17:48;;;;;;;4.60;1.90;;;;;;;;;;5075537;28;20185;-68
2022/09/03 07:20:18;;;;;;;4.43;1.70;;;;;;;;;;5066773;28;20204;-65
2022/09/03 07:22:50;;;;;;;3.93;1.80;;;;;;;;;;5066121;28;20218;-68
2022/09/03 07:25:17;;;;;;;3.57;2.00;;;;;;;;;;5034083;28;20248;-66
2022/09/03 07:27:50;;;;;;;5.27;2.63;;;;;;;;;;5049897;28;20202;-72
2022/09/03 07:30:25;;;;;;;4.43;2.80;;;;;;;;;;5055551;28;20538;-69
2022/09/03 07:32:53;;;;;;;7.30;3.67;;;;;;;;;;5081977;28;20189;-66
2022/09/03 07:35:26;;;;;;;11.43;5.23;;;;;;;;;;5046128;28;20201;-66
2022/09/03 07:37:57;;;;;;;9.93;4.93;;;;;;;;;;5065019;28;20232;-64
2022/09/03 07:40:28;;;;;;;11.63;6.10;;;;;;;;;;5063862;28;20197;-71
2022/09/03 07:43:04;;;;;;;11.03;5.60;;;;;;;;;;5063800;28;20202;-72
2022/09/03 07:45:32;;;;;;;12.07;6.20;;;;;;;;;;5077242;28;20218;-73
2022/09/03 07:48:02;;;;;;;14.10;6.73;;;;;;;;;;5045759;28;20193;-72
2022/09/03 07:50:38;;;;;;;10.43;6.33;;;;;;;;;;5073103;28;20202;-68
2022/09/03 07:53:11;;;;;;;12.53;6.83;;;;;;;;;;5082580;28;20292;-70
2022/09/03 07:55:53;;;;;;;10.37;6.73;;;;;;;;;;5067847;28;20209;-68
2022/09/03 07:58:23;;;;;;;9.83;6.17;;;;;;;;;;5054935;28;20229;-69
2022/09/03 08:01:11;;;;;;;15.53;7.30;;;;;;;;;;5065896;28;20292;-67
2022/09/03 08:03:46;;;;;;;13.70;7.53;;;;;;;;;;5063445;28;20205;-67
2022/09/03 08:06:19;;;;;;;12.80;7.47;;;;;;;;;;5050043;28;20862;-67
2022/09/03 08:08:50;;;;;;;15.13;7.97;;;;;;;;;;5064166;28;20198;-69
2022/09/03 08:11:21;;;;;;;15.80;7.77;;;;;;;;;;5041714;28;20713;-68
2022/09/03 08:14:05;;;;;;;14.40;7.73;;;;;;;;;;5052364;28;20218;-67
2022/09/03 08:16:41;;;;;;;13.00;7.70;;;;;;;;;;5059528;28;20194;-66
2022/09/03 08:19:12;;;;;;;13.80;8.67;;;;;;;;;;5044632;28;20205;-66
2022/09/03 08:21:41;;;;;;;13.13;7.97;;;;;;;;;;5060360;28;20671;-65
2022/09/03 08:24:20;;;;;;;14.90;8.57;;;;;;;;;;5059308;28;20193;-66
2022/09/03 08:26:52;;;;;;;16.47;8.70;;;;;;;;;;5076460;28;20279;-69
2022/09/03 08:29:22;;;;;;;16.10;7.83;;;;;;;;;;5055173;28;20214;-64
2022/09/03 08:31:52;;;;;;;14.33;7.50;;;;;;;;;;5054583;28;20213;-66
2022/09/03 08:34:22;;;;;;;11.43;7.27;;;;;;;;;;5068240;28;20695;-67
2022/09/03 08:36:53;;;;;;;12.30;7.37;;;;;;;;;;5068709;28;20687;-65
2022/09/03 08:39:28;;;;;;;14.63;8.37;;;;;;;;;;5062728;28;20205;-71
2022/09/03 08:42:33;;;;;;;17.27;8.10;;;;;;;;;;5061734;28;20715;-71
2022/09/03 08:45:11;;;;;;;15.07;7.50;;;;;;;;;;5072617;28;20230;-70
2022/09/03 08:47:54;;;;;;;15.00;7.37;;;;;;;;;;5043989;28;20548;-72
2022/09/03 08:50:29;;;;;;;13.43;7.93;;;;;;;;;;5078357;28;20197;-70
2022/09/03 08:53:39;;;;;;;13.93;7.03;;;;;;;;;;5056413;28;20841;-67
2022/09/03 08:56:19;;;;;;;10.90;7.23;;;;;;;;;;5073276;28;20219;-69
2022/09/03 08:58:51;;;;;;;12.40;7.67;;;;;;;;;;5071559;28;20243;-70
2022/09/03 09:01:39;;;;;;;12.07;7.43;;;;;;;;;;5031857;28;20327;-73
2022/09/03 09:04:27;;;;;;;12.87;7.37;;;;;;;;;;5070584;28;20283;-72
2022/09/03 09:06:59;;;;;;;11.40;7.60;;;;;;;;;;5068790;28;20231;-73
2022/09/03 09:09:47;;;;;;;11.80;7.17;;;;;;;;;;5063203;28;20277;-70
2022/09/03 09:12:40;;;;;;;13.80;8.07;;;;;;;;;;5064404;28;20186;-67
2022/09/03 09:15:33;;;;;;;12.60;7.63;;;;;;;;;;5039881;28;20208;-71
2022/09/03 09:18:19;;;;;;;9.20;7.03;;;;;;;;;;5067617;28;20670;-72
2022/09/03 09:21:05;;;;;;;16.13;7.90;;;;;;;;;;5078618;28;20289;-69
2022/09/03 09:23:43;;;;;;;10.67;7.23;;;;;;;;;;5061763;28;20261;-69
2022/09/03 09:26:13;;;;;;;14.90;8.20;;;;;;;;;;5081500;28;20287;-72
2022/09/03 09:28:46;;;;;;;11.60;8.40;;;;;;;;;;5055723;28;20209;-72
2022/09/03 09:31:17;;;;;;;11.50;7.50;;;;;;;;;;5047939;28;20214;-71
2022/09/03 09:33:51;;;;;;;12.63;7.80;;;;;;;;;;5088084;28;20197;-71
2022/09/03 09:36:25;;;;;;;11.70;7.53;;;;;;;;;;5051928;28;20194;-70
2022/09/03 09:38:56;;;;;;;11.73;7.17;;;;;;;;;;5089995;28;20575;-71
2022/09/03 09:41:28;;;;;;;13.37;6.63;;;;;;;;;;5065681;28;20182;-69
2022/09/03 09:44:02;;;;;;;12.57;7.63;;;;;;;;;;5064267;28;20233;-70
2022/09/03 09:46:40;;;;;;;8.87;6.97;;;;;;;;;;5087464;28;20782;-69
2022/09/03 09:49:30;;;;;;;12.73;7.17;;;;;;;;;;5071554;28;20204;-70
2022/09/03 09:52:10;;;;;;;15.43;7.77;;;;;;;;;;5060410;28;20201;-71
2022/09/03 09:54:47;;;;;;;13.17;7.10;;;;;;;;;;5076694;28;20197;-71
2022/09/03 09:57:24;;;;;;;9.17;6.50;;;;;;;;;;5078383;28;20192;-72
2022/09/03 10:00:09;;;;;;;10.13;6.90;;;;;;;;;;5079061;28;20210;-71
2022/09/03 10:02:40;;;;;;;10.57;6.77;;;;;;;;;;5068548;28;20305;-70
2022/09/03 10:05:13;;;;;;;9.33;6.60;;;;;;;;;;5071750;28;20213;-72
2022/09/03 10:07:59;;;;;;;11.80;7.10;;;;;;;;;;5055427;28;20199;-72
2022/09/03 10:10:33;;;;;;;12.80;7.00;;;;;;;;;;5064707;28;20576;-70
2022/09/03 10:13:09;;;;;;;10.17;6.93;;;;;;;;;;5087202;28;20539;-70
2022/09/03 10:16:03;;;;;;;9.80;7.10;;;;;;;;;;5044707;28;20659;-73
2022/09/03 10:18:42;;;;;;;8.20;6.27;;;;;;;;;;5078924;28;20216;-71
2022/09/03 10:21:17;;;;;;;8.60;5.83;;;;;;;;;;5056656;28;20623;-70
2022/09/03 10:24:03;;;;;;;10.87;7.17;;;;;;;;;;5073448;28;20201;-71
2022/09/03 10:26:36;;;;;;;8.60;5.97;;;;;;;;;;5063094;28;20245;-68
2022/09/03 10:29:08;;;;;;;9.40;6.10;;;;;;;;;;5082083;28;20204;-68
2022/09/03 10:31:55;;;;;;;8.40;5.60;;;;;;;;;;5072333;28;20939;-67
2022/09/03 10:34:24;;;;;;;8.47;5.20;;;;;;;;;;5081271;28;20186;-67
2022/09/03 10:37:17;;;;;;;6.70;5.27;;;;;;;;;;5066414;28;20194;-68
2022/09/03 10:39:58;;;;;;;8.73;5.93;;;;;;;;;;5073754;28;20220;-68
2022/09/03 10:42:49;;;;;;;9.37;6.43;;;;;;;;;;5071568;28;20562;-69
2022/09/03 10:45:27;;;;;;;8.60;6.17;;;;;;;;;;5071218;28;20224;-68
2022/09/03 10:48:31;;;;;;;9.00;5.73;;;;;;;;;;5072997;28;20533;-68
2022/09/03 10:51:03;;;;;;;8.23;5.80;;;;;;;;;;5081093;28;20209;-69
2022/09/03 10:53:48;;;;;;;8.00;5.80;;;;;;;;;;5066075;28;20193;-69
2022/09/03 10:56:40;;;;;;;7.53;5.87;;;;;;;;;;5064442;28;20191;-71
2022/09/03 10:59:28;;;;;;;8.40;6.17;;;;;;;;;;5040082;28;20201;-70
2022/09/03 11:02:05;;;;;;;8.97;6.07;;;;;;;;;;5085296;28;20212;-70
2022/09/03 11:04:53;;;;;;;11.20;6.70;;;;;;;;;;5050369;28;20213;-69
2022/09/03 11:07:32;;;;;;;10.33;5.90;;;;;;;;;;5061976;28;20223;-69
2022/09/03 11:10:14;;;;;;;7.60;6.03;;;;;;;;;;5045201;28;20674;-70
2022/09/03 11:13:00;;;;;;;13.07;6.00;;;;;;;;;;5060927;28;20201;-69
2022/09/03 11:15:34;;;;;;;12.43;5.90;;;;;;;;;;5073833;28;20214;-68
2022/09/03 11:18:07;;;;;;;10.10;5.83;;;;;;;;;;5083841;28;20205;-68
2022/09/03 11:20:36;;;;;;;10.10;5.80;;;;;;;;;;5070721;28;20624;-69
2022/09/03 11:23:14;;;;;;;7.20;4.80;;;;;;;;;;5050481;28;20218;-70
2022/09/03 11:26:00;;;;;;;9.60;5.93;;;;;;;;;;5060060;28;20241;-71
2022/09/03 11:28:51;;;;;;;7.90;5.37;;;;;;;;;;5077869;28;20195;-70
2022/09/03 11:31:42;;;;;;;8.53;5.00;;;;;;;;;;5065909;28;20250;-70
2022/09/03 11:34:26;;;;;;;6.13;5.13;;;;;;;;;;5063447;28;20186;-70
2022/09/03 11:37:18;;;;;;;10.93;5.53;;;;;;;;;;5052143;28;20185;-71
2022/09/03 11:40:10;;;;;;;6.90;5.17;;;;;;;;;;5067019;28;20190;-70
2022/09/03 11:42:46;;;;;;;6.77;5.07;;;;;;;;;;5066002;28;20205;-73
2022/09/03 11:45:29;;;;;;;7.87;4.97;;;;;;;;;;5066349;28;20229;-72
2022/09/03 11:48:03;;;;;;;7.63;4.53;;;;;;;;;;5062253;28;20185;-72
2022/09/03 11:50:32;;;;;;;4.90;4.07;;;;;;;;;;5070097;28;20209;-72
2022/09/03 11:53:09;;;;;;;5.23;3.80;;;;;;;;;;5084027;28;20193;-70
2022/09/03 11:56:02;;;;;;;8.47;4.07;;;;;;;;;;5062108;28;20587;-69
2022/09/03 11:58:38;;;;;;;6.07;4.03;;;;;;;;;;5068392;28;20236;-72
2022/09/03 12:01:11;;;;;;;6.63;4.30;;;;;;;;;;5067920;28;20300;-71
2022/09/03 12:03:42;;;;;;;5.60;3.83;;;;;;;;;;5064705;28;20209;-73
2022/09/03 12:06:26;;;;;;;11.20;4.17;;;;;;;;;;5066349;28;20224;-70
2022/09/03 12:09:13;;;;;;;5.83;3.70;;;;;;;;;;5061935;28;20198;-72
2022/09/03 12:12:05;;;;;;;5.47;4.07;;;;;;;;;;5065546;28;20202;-69
2022/09/03 12:14:56;;;;;;;7.37;3.47;;;;;;;;;;5062743;28;20208;-71
2022/09/03 12:21:00;;;;;;;5.43;3.50;;;;;;;;;;5059883;28;20217;-72
2022/09/03 12:23:38;;;;;;;7.73;3.53;;;;;;;;;;5039194;28;20346;-73
2022/09/03 12:26:17;;;;;;;7.83;3.30;;;;;;;;;;5070308;28;20221;-72
2022/09/03 12:28:50;;;;;;;6.33;3.57;;;;;;;;;;5068992;28;20201;-71
2022/09/03 12:31:44;;;;;;;6.40;4.20;;;;;;;;;;5052688;28;20209;-72
2022/09/03 12:34:18;;;;;;;7.33;3.80;;;;;;;;;;5065412;28;20190;-74
2022/09/03 12:36:52;;;;;;;7.03;3.60;;;;;;;;;;5068559;28;20634;-74
2022/09/03 12:39:25;;;;;;;5.23;3.43;;;;;;;;;;5076370;28;20212;-71
2022/09/03 12:42:21;;;;;;;7.03;3.67;;;;;;;;;;5065102;28;20576;-71
2022/09/03 12:44:50;;;;;;;3.90;3.30;;;;;;;;;;5060870;28;20253;-70
2022/09/03 12:47:23;;;;;;;6.13;3.30;;;;;;;;;;5077160;28;20208;-74
2022/09/03 12:50:10;;;;;;;6.00;3.60;;;;;;;;;;5043801;28;20241;-71
2022/09/03 12:52:41;;;;;;;4.63;3.27;;;;;;;;;;5067993;28;20207;-75
2022/09/03 12:55:43;;;;;;;4.97;3.47;;;;;;;;;;5066803;28;20194;-71
2022/09/03 12:58:34;;;;;;;7.47;3.63;;;;;;;;;;5064764;28;20609;-76
2022/09/03 13:01:17;;;;;;;7.17;3.67;;;;;;;;;;5070078;28;20202;-72
2022/09/03 13:04:21;;;;;;;5.67;3.73;;;;;;;;;;5044392;28;20225;-72
2022/09/03 13:06:56;;;;;;;4.33;3.13;;;;;;;;;;5058577;28;20248;-66
2022/09/03 13:09:33;;;;;;;5.03;3.47;;;;;;;;;;5077809;28;20191;-66
2022/09/03 13:12:04;;;;;;;6.53;3.37;;;;;;;;;;5083383;28;20226;-64
2022/09/03 13:14:46;;;;;;;8.07;3.23;;;;;;;;;;5062824;28;20205;-64
2022/09/03 13:17:37;;;;;;;5.07;3.27;;;;;;;;;;5056619;28;20205;-64
2022/09/03 13:20:09;;;;;;;5.30;3.03;;;;;;;;;;5066539;28;20247;-65
2022/09/03 13:22:57;;;;;;;5.23;3.23;;;;;;;;;;5068313;28;20207;-66
2022/09/03 13:25:29;;;;;;;6.83;3.10;;;;;;;;;;5060437;28;20670;-65
2022/09/03 13:28:07;;;;;;;5.20;3.20;;;;;;;;;;5069704;28;20221;-65
2022/09/03 13:30:56;;;;;;;3.73;3.00;;;;;;;;;;5065960;28;20194;-65
2022/09/03 13:33:33;;;;;;;4.50;3.57;;;;;;;;;;5066829;28;20205;-65
2022/09/03 13:36:13;;;;;;;3.73;3.03;;;;;;;;;;5072830;28;20646;-65
2022/09/03 13:39:05;;;;;;;3.90;2.83;;;;;;;;;;5062004;28;20213;-66
2022/09/03 13:41:45;;;;;;;5.17;2.97;;;;;;;;;;5063117;28;20202;-65
2022/09/03 13:44:18;;;;;;;3.90;2.90;;;;;;;;;;5065094;28;20241;-65
2022/09/03 13:46:54;;;;;;;4.40;2.60;;;;;;;;;;5065981;28;20726;-66
2022/09/03 13:52:27;;;;;;;3.90;2.90;;;;;;;;;;5066067;28;20186;-66
2022/09/03 13:54:59;;;;;;;2.87;2.20;;;;;;;;;;5065094;28;20198;-66
2022/09/03 13:57:47;;;;;;;6.63;2.60;;;;;;;;;;5077791;28;20224;-63
2022/09/03 14:00:34;;;;;;;3.50;2.53;;;;;;;;;;5052807;28;20213;-64
2022/09/03 14:03:07;;;;;;;2.80;2.30;;;;;;;;;;5067087;28;20210;-63
2022/09/03 14:05:47;;;;;;;3.07;2.30;;;;;;;;;;5078296;28;20201;-65
2022/09/03 14:08:25;;;;;;;3.00;2.10;;;;;;;;;;5066547;28;20189;-65
2022/09/03 14:11:06;;;;;;;3.17;2.53;;;;;;;;;;5074781;28;20209;-65
2022/09/03 14:13:58;;;;;;;5.20;2.70;;;;;;;;;;5061356;28;20217;-65
2022/09/03 14:17:11;;;;;;;3.20;1.97;;;;;;;;;;5068819;28;20198;-65
2022/09/03 14:19:55;;;;;;;3.33;2.43;;;;;;;;;;5035040;28;20222;-64
2022/09/03 14:22:49;;;;;;;3.90;2.40;;;;;;;;;;5048412;28;20556;-64
2022/09/03 14:25:23;;;;;;;3.10;2.60;;;;;;;;;;5058416;28;20265;-64
2022/09/03 14:27:54;;;;;;;3.20;2.60;;;;;;;;;;5072687;28;20209;-63
2022/09/03 14:31:00;;;;;;;3.17;2.40;;;;;;;;;;5052697;28;20198;-63
2022/09/03 14:34:02;;;;;;;5.07;2.60;;;;;;;;;;5022983;28;20195;-64
2022/09/03 14:36:55;;;;;;;5.93;2.73;;;;;;;;;;5009037;28;20203;-65
2022/09/03 14:39:42;;;;;;;3.27;2.40;;;;;;;;;;5019122;28;20260;-65
2022/09/03 14:42:22;;;;;;;2.87;2.40;;;;;;;;;;5026414;28;20277;-63
2022/09/03 14:45:30;;;;;;;3.87;2.30;;;;;;;;;;5026339;28;20614;-62
2022/09/03 14:48:25;;;;;;;3.57;2.70;;;;;;;;;;5034300;28;20239;-64
2022/09/03 14:51:14;;;;;;;3.10;2.60;;;;;;;;;;5025416;28;20846;-64
2022/09/03 14:54:06;;;;;;;5.03;2.60;;;;;;;;;;5036164;28;20651;-64
2022/09/03 14:56:55;;;;;;;4.77;2.83;;;;;;;;;;5055778;28;20198;-65
2022/09/03 14:59:52;;;;;;;4.47;2.87;;;;;;;;;;5056550;28;20206;-65
2022/09/03 15:02:38;;;;;;;3.60;2.87;;;;;;;;;;5047056;28;20221;-65
2022/09/03 15:05:10;;;;;;;3.30;2.50;;;;;;;;;;5048763;28;20214;-63
2022/09/03 15:07:58;;;;;;;4.57;2.33;;;;;;;;;;5022651;28;20246;-62
2022/09/03 15:10:49;;;;;;;3.47;2.80;;;;;;;;;;5041040;28;20248;-62
2022/09/03 15:13:35;;;;;;;3.23;2.93;;;;;;;;;;5017526;28;20244;-64
2022/09/03 15:16:21;;;;;;;3.73;2.93;;;;;;;;;;5038898;28;20198;-65
2022/09/03 15:19:08;;;;;;;4.47;3.40;;;;;;;;;;5028311;28;20197;-65
2022/09/03 15:22:02;;;;;;;4.03;3.30;;;;;;;;;;5043039;28;20862;-63
2022/09/03 15:24:52;;;;;;;3.23;2.93;;;;;;;;;;5043485;28;20221;-63
2022/09/03 15:28:12;;;;;;;6.43;3.43;;;;;;;;;;5040738;28;20243;-63
2022/09/03 15:30:49;;;;;;;4.33;3.20;;;;;;;;;;5022130;28;20545;-63
2022/09/03 15:33:39;;;;;;;4.93;3.90;;;;;;;;;;5022136;28;20706;-63
2022/09/03 15:36:25;;;;;;;4.87;3.47;;;;;;;;;;5024830;28;20729;-65
2022/09/03 15:39:01;;;;;;;3.97;3.47;;;;;;;;;;5016400;28;20207;-65
2022/09/03 15:41:45;;;;;;;7.17;3.93;;;;;;;;;;5022011;28;20206;-64
2022/09/03 15:44:18;;;;;;;10.47;5.23;;;;;;;;;;5020853;28;20311;-65
2022/09/03 15:47:09;;;;;;;14.97;6.10;;;;;;;;;;5023106;28;20227;-66
2022/09/03 15:50:00;;;;;;;13.20;6.90;;;;;;;;;;5037014;28;20327;-64
2022/09/03 15:53:03;;;;;;;11.20;6.50;;;;;;;;;;5043148;28;20910;-62
2022/09/03 15:55:44;;;;;;;8.80;5.23;;;;;;;;;;5045322;28;20202;-64
2022/09/03 15:58:35;;;;;;;12.27;5.90;;;;;;;;;;5044629;28;20206;-63